sensor_id;sensor_type;location;lat;lon;timestamp;P1;durP1;ratioP1;P2;durP2;ratioP2
54921;SDS011;40824;45.116;21.296;2023-05-17T00:01:48;16.33;;;8.52;;
54921;SDS011;40824;45.116;21.296;2023-05-17T00:04:14;17.35;;;8.73;;
54921;SDS011;40824;45.116;21.296;2023-05-17T00:06:40;15.75;;;8.20;;
54921;SDS011;40824;45.116;21.296;2023-05-17T00:09:07;10.93;;;7.95;;
54921;SDS011;40824;45.116;21.296;2023-05-17T00:11:33;14.60;;;8.80;;
54921;SDS011;40824;45.116;21.296;2023-05-17T00:13:59;12.10;;;8.95;;
54921;SDS011;40824;45.116;21.296;2023-05-17T00:16:25;14.60;;;9.05;;
54921;SDS011;40824;45.116;21.296;2023-05-17T00:18:51;25.38;;;9.05;;
54921;SDS011;40824;45.116;21.296;2023-05-17T00:21:17;15.00;;;8.60;;
54921;SDS011;40824;45.116;21.296;2023-05-17T00:23:43;18.25;;;9.25;;
54921;SDS011;40824;45.116;21.296;2023-05-17T00:26:09;14.68;;;8.48;;
54921;SDS011;40824;45.116;21.296;2023-05-17T00:28:37;13.27;;;8.50;;
54921;SDS011;40824;45.116;21.296;2023-05-17T00:31:03;15.20;;;9.88;;
54921;SDS011;40824;45.116;21.296;2023-05-17T00:33:29;17.45;;;9.82;;
54921;SDS011;40824;45.116;21.296;2023-05-17T00:35:55;18.23;;;9.60;;
54921;SDS011;40824;45.116;21.296;2023-05-17T00:38:22;16.40;;;9.88;;
54921;SDS011;40824;45.116;21.296;2023-05-17T00:40:48;17.85;;;9.82;;
54921;SDS011;40824;45.116;21.296;2023-05-17T00:43:15;16.55;;;9.50;;
54921;SDS011;40824;45.116;21.296;2023-05-17T00:45:41;17.23;;;9.93;;
54921;SDS011;40824;45.116;21.296;2023-05-17T00:48:07;14.38;;;9.25;;
54921;SDS011;40824;45.116;21.296;2023-05-17T00:50:33;11.82;;;9.50;;
54921;SDS011;40824;45.116;21.296;2023-05-17T00:52:59;17.10;;;9.52;;
54921;SDS011;40824;45.116;21.296;2023-05-17T00:55:25;18.58;;;10.82;;
54921;SDS011;40824;45.116;21.296;2023-05-17T00:57:52;15.68;;;9.48;;
54921;SDS011;40824;45.116;21.296;2023-05-17T01:00:18;15.27;;;8.98;;
54921;SDS011;40824;45.116;21.296;2023-05-17T01:02:44;13.70;;;9.10;;
54921;SDS011;40824;45.116;21.296;2023-05-17T01:05:12;23.15;;;8.60;;
54921;SDS011;40824;45.116;21.296;2023-05-17T01:07:39;15.18;;;10.27;;
54921;SDS011;40824;45.116;21.296;2023-05-17T01:10:05;17.27;;;9.70;;
54921;SDS011;40824;45.116;21.296;2023-05-17T01:12:49;18.42;;;9.60;;
54921;SDS011;40824;45.116;21.296;2023-05-17T01:15:24;16.77;;;9.02;;
54921;SDS011;40824;45.116;21.296;2023-05-17T01:20:18;15.70;;;9.38;;
54921;SDS011;40824;45.116;21.296;2023-05-17T01:27:54;17.17;;;9.65;;
54921;SDS011;40824;45.116;21.296;2023-05-17T01:30:24;14.05;;;8.93;;
54921;SDS011;40824;45.116;21.296;2023-05-17T01:32:51;17.25;;;9.52;;
54921;SDS011;40824;45.116;21.296;2023-05-17T01:35:17;16.08;;;8.75;;
54921;SDS011;40824;45.116;21.296;2023-05-17T01:37:43;16.65;;;9.05;;
54921;SDS011;40824;45.116;21.296;2023-05-17T01:40:09;14.10;;;8.18;;
54921;SDS011;40824;45.116;21.296;2023-05-17T01:42:40;13.45;;;8.93;;
54921;SDS011;40824;45.116;21.296;2023-05-17T01:45:10;12.68;;;9.82;;
54921;SDS011;40824;45.116;21.296;2023-05-17T01:50:03;15.82;;;10.57;;
54921;SDS011;40824;45.116;21.296;2023-05-17T01:52:34;12.93;;;10.07;;
54921;SDS011;40824;45.116;21.296;2023-05-17T01:55:07;14.18;;;10.82;;
54921;SDS011;40824;45.116;21.296;2023-05-17T01:57:34;12.32;;;10.85;;
54921;SDS011;40824;45.116;21.296;2023-05-17T02:00:03;18.80;;;12.32;;
54921;SDS011;40824;45.116;21.296;2023-05-17T02:02:30;16.85;;;12.40;;
54921;SDS011;40824;45.116;21.296;2023-05-17T02:04:56;17.27;;;13.52;;
54921;SDS011;40824;45.116;21.296;2023-05-17T02:07:22;15.07;;;13.48;;
54921;SDS011;40824;45.116;21.296;2023-05-17T02:09:48;37.70;;;15.57;;
54921;SDS011;40824;45.116;21.296;2023-05-17T02:12:14;23.25;;;15.60;;
54921;SDS011;40824;45.116;21.296;2023-05-17T02:14:40;17.42;;;15.52;;
54921;SDS011;40824;45.116;21.296;2023-05-17T02:17:06;17.05;;;15.32;;
54921;SDS011;40824;45.116;21.296;2023-05-17T02:19:32;19.75;;;16.98;;
54921;SDS011;40824;45.116;21.296;2023-05-17T02:21:59;26.50;;;21.10;;
54921;SDS011;40824;45.116;21.296;2023-05-17T02:24:25;23.80;;;19.02;;
54921;SDS011;40824;45.116;21.296;2023-05-17T02:26:51;25.83;;;19.48;;
54921;SDS011;40824;45.116;21.296;2023-05-17T02:29:17;21.13;;;18.92;;
54921;SDS011;40824;45.116;21.296;2023-05-17T02:31:43;23.80;;;18.75;;
54921;SDS011;40824;45.116;21.296;2023-05-17T02:34:10;18.92;;;16.90;;
54921;SDS011;40824;45.116;21.296;2023-05-17T02:36:36;17.77;;;15.90;;
54921;SDS011;40824;45.116;21.296;2023-05-17T02:39:02;19.90;;;15.55;;
54921;SDS011;40824;45.116;21.296;2023-05-17T02:41:28;18.35;;;15.98;;
54921;SDS011;40824;45.116;21.296;2023-05-17T02:43:54;17.25;;;14.93;;
54921;SDS011;40824;45.116;21.296;2023-05-17T02:46:20;16.75;;;14.73;;
54921;SDS011;40824;45.116;21.296;2023-05-17T02:48:46;23.25;;;16.50;;
54921;SDS011;40824;45.116;21.296;2023-05-17T02:51:12;19.55;;;15.65;;
54921;SDS011;40824;45.116;21.296;2023-05-17T02:53:38;20.48;;;16.55;;
54921;SDS011;40824;45.116;21.296;2023-05-17T02:56:05;20.02;;;16.98;;
54921;SDS011;40824;45.116;21.296;2023-05-17T02:58:31;21.85;;;17.08;;
54921;SDS011;40824;45.116;21.296;2023-05-17T03:00:57;22.25;;;17.73;;
54921;SDS011;40824;45.116;21.296;2023-05-17T03:03:23;19.83;;;16.75;;
54921;SDS011;40824;45.116;21.296;2023-05-17T03:05:49;20.42;;;17.60;;
54921;SDS011;40824;45.116;21.296;2023-05-17T03:08:15;24.60;;;16.80;;
54921;SDS011;40824;45.116;21.296;2023-05-17T03:10:42;20.55;;;15.18;;
54921;SDS011;40824;45.116;21.296;2023-05-17T03:13:08;19.38;;;16.15;;
54921;SDS011;40824;45.116;21.296;2023-05-17T03:15:34;19.08;;;14.77;;
54921;SDS011;40824;45.116;21.296;2023-05-17T03:18:00;17.55;;;15.65;;
54921;SDS011;40824;45.116;21.296;2023-05-17T03:20:26;19.70;;;14.15;;
54921;SDS011;40824;45.116;21.296;2023-05-17T03:22:52;18.40;;;14.30;;
54921;SDS011;40824;45.116;21.296;2023-05-17T03:25:18;17.35;;;13.27;;
54921;SDS011;40824;45.116;21.296;2023-05-17T03:27:44;13.73;;;12.27;;
54921;SDS011;40824;45.116;21.296;2023-05-17T03:30:13;18.05;;;12.82;;
54921;SDS011;40824;45.116;21.296;2023-05-17T03:32:39;16.88;;;12.95;;
54921;SDS011;40824;45.116;21.296;2023-05-17T03:35:05;14.40;;;12.52;;
54921;SDS011;40824;45.116;21.296;2023-05-17T03:37:32;26.52;;;13.45;;
54921;SDS011;40824;45.116;21.296;2023-05-17T03:39:58;16.95;;;13.40;;
54921;SDS011;40824;45.116;21.296;2023-05-17T03:42:24;16.45;;;13.40;;
54921;SDS011;40824;45.116;21.296;2023-05-17T03:44:51;17.13;;;12.73;;
54921;SDS011;40824;45.116;21.296;2023-05-17T03:47:17;17.92;;;13.45;;
54921;SDS011;40824;45.116;21.296;2023-05-17T03:49:43;17.55;;;13.90;;
54921;SDS011;40824;45.116;21.296;2023-05-17T03:52:09;16.50;;;13.68;;
54921;SDS011;40824;45.116;21.296;2023-05-17T03:54:35;15.93;;;13.15;;
54921;SDS011;40824;45.116;21.296;2023-05-17T03:57:04;19.42;;;12.82;;
54921;SDS011;40824;45.116;21.296;2023-05-17T03:59:30;16.23;;;12.18;;
54921;SDS011;40824;45.116;21.296;2023-05-17T04:01:56;14.55;;;12.15;;
54921;SDS011;40824;45.116;21.296;2023-05-17T04:04:22;14.63;;;11.70;;
54921;SDS011;40824;45.116;21.296;2023-05-17T04:06:48;13.57;;;11.90;;
54921;SDS011;40824;45.116;21.296;2023-05-17T04:09:14;13.18;;;11.65;;
54921;SDS011;40824;45.116;21.296;2023-05-17T04:11:41;17.38;;;11.00;;
54921;SDS011;40824;45.116;21.296;2023-05-17T04:14:07;15.32;;;11.23;;
54921;SDS011;40824;45.116;21.296;2023-05-17T04:16:36;15.52;;;10.07;;
54921;SDS011;40824;45.116;21.296;2023-05-17T04:19:02;11.40;;;9.73;;
54921;SDS011;40824;45.116;21.296;2023-05-17T04:21:28;15.48;;;10.30;;
54921;SDS011;40824;45.116;21.296;2023-05-17T04:23:55;12.88;;;9.82;;
54921;SDS011;40824;45.116;21.296;2023-05-17T04:26:21;12.27;;;9.95;;
54921;SDS011;40824;45.116;21.296;2023-05-17T04:28:47;12.00;;;9.00;;
54921;SDS011;40824;45.116;21.296;2023-05-17T04:31:14;14.20;;;9.57;;
54921;SDS011;40824;45.116;21.296;2023-05-17T04:33:40;10.65;;;9.43;;
54921;SDS011;40824;45.116;21.296;2023-05-17T04:36:07;10.82;;;9.38;;
54921;SDS011;40824;45.116;21.296;2023-05-17T04:38:33;12.70;;;9.73;;
54921;SDS011;40824;45.116;21.296;2023-05-17T04:41:02;12.60;;;9.00;;
54921;SDS011;40824;45.116;21.296;2023-05-17T04:43:32;11.02;;;9.27;;
54921;SDS011;40824;45.116;21.296;2023-05-17T04:45:58;11.95;;;8.82;;
54921;SDS011;40824;45.116;21.296;2023-05-17T04:48:25;16.90;;;9.57;;
54921;SDS011;40824;45.116;21.296;2023-05-17T04:50:51;16.67;;;10.30;;
54921;SDS011;40824;45.116;21.296;2023-05-17T04:53:18;11.55;;;8.93;;
54921;SDS011;40824;45.116;21.296;2023-05-17T04:55:44;14.75;;;9.43;;
54921;SDS011;40824;45.116;21.296;2023-05-17T04:58:12;14.98;;;9.68;;
54921;SDS011;40824;45.116;21.296;2023-05-17T05:00:38;12.45;;;9.13;;
54921;SDS011;40824;45.116;21.296;2023-05-17T05:03:04;10.65;;;8.60;;
54921;SDS011;40824;45.116;21.296;2023-05-17T05:05:31;11.82;;;8.85;;
54921;SDS011;40824;45.116;21.296;2023-05-17T05:07:57;14.52;;;8.98;;
54921;SDS011;40824;45.116;21.296;2023-05-17T05:10:23;12.52;;;8.35;;
54921;SDS011;40824;45.116;21.296;2023-05-17T05:12:52;12.23;;;8.52;;
54921;SDS011;40824;45.116;21.296;2023-05-17T05:15:18;12.00;;;8.57;;
54921;SDS011;40824;45.116;21.296;2023-05-17T05:17:44;10.02;;;8.45;;
54921;SDS011;40824;45.116;21.296;2023-05-17T05:20:10;10.68;;;8.55;;
54921;SDS011;40824;45.116;21.296;2023-05-17T05:22:37;9.60;;;8.05;;
54921;SDS011;40824;45.116;21.296;2023-05-17T05:25:03;11.65;;;8.95;;
54921;SDS011;40824;45.116;21.296;2023-05-17T05:27:29;12.55;;;9.45;;
54921;SDS011;40824;45.116;21.296;2023-05-17T05:29:55;13.60;;;8.55;;
54921;SDS011;40824;45.116;21.296;2023-05-17T05:32:21;13.38;;;9.70;;
54921;SDS011;40824;45.116;21.296;2023-05-17T05:34:47;13.00;;;8.52;;
54921;SDS011;40824;45.116;21.296;2023-05-17T05:37:13;14.32;;;9.00;;
54921;SDS011;40824;45.116;21.296;2023-05-17T05:39:39;11.27;;;7.63;;
54921;SDS011;40824;45.116;21.296;2023-05-17T05:42:05;14.48;;;7.70;;
54921;SDS011;40824;45.116;21.296;2023-05-17T05:44:34;10.93;;;8.55;;
54921;SDS011;40824;45.116;21.296;2023-05-17T05:47:00;10.05;;;7.55;;
54921;SDS011;40824;45.116;21.296;2023-05-17T05:49:26;14.00;;;8.55;;
54921;SDS011;40824;45.116;21.296;2023-05-17T05:51:52;13.02;;;8.40;;
54921;SDS011;40824;45.116;21.296;2023-05-17T05:54:18;11.48;;;8.40;;
54921;SDS011;40824;45.116;21.296;2023-05-17T05:56:44;12.63;;;8.65;;
54921;SDS011;40824;45.116;21.296;2023-05-17T05:59:11;9.98;;;7.78;;
54921;SDS011;40824;45.116;21.296;2023-05-17T06:01:37;10.50;;;6.85;;
54921;SDS011;40824;45.116;21.296;2023-05-17T06:04:03;10.65;;;7.20;;
54921;SDS011;40824;45.116;21.296;2023-05-17T06:06:29;11.45;;;6.70;;
54921;SDS011;40824;45.116;21.296;2023-05-17T06:08:55;11.32;;;7.18;;
54921;SDS011;40824;45.116;21.296;2023-05-17T06:11:21;10.15;;;6.55;;
54921;SDS011;40824;45.116;21.296;2023-05-17T06:13:48;10.77;;;6.50;;
54921;SDS011;40824;45.116;21.296;2023-05-17T06:16:14;12.95;;;6.45;;
54921;SDS011;40824;45.116;21.296;2023-05-17T06:18:40;10.18;;;6.13;;
54921;SDS011;40824;45.116;21.296;2023-05-17T06:21:06;11.77;;;6.28;;
54921;SDS011;40824;45.116;21.296;2023-05-17T06:23:32;10.48;;;5.45;;
54921;SDS011;40824;45.116;21.296;2023-05-17T06:25:58;10.38;;;5.90;;
54921;SDS011;40824;45.116;21.296;2023-05-17T06:28:25;16.05;;;6.03;;
54921;SDS011;40824;45.116;21.296;2023-05-17T06:30:51;7.95;;;5.22;;
54921;SDS011;40824;45.116;21.296;2023-05-17T06:33:17;10.18;;;5.53;;
54921;SDS011;40824;45.116;21.296;2023-05-17T06:35:43;12.02;;;6.35;;
54921;SDS011;40824;45.116;21.296;2023-05-17T06:38:09;7.45;;;5.03;;
54921;SDS011;40824;45.116;21.296;2023-05-17T06:40:35;10.68;;;4.95;;
54921;SDS011;40824;45.116;21.296;2023-05-17T06:43:03;7.20;;;5.10;;
54921;SDS011;40824;45.116;21.296;2023-05-17T06:45:29;13.00;;;6.00;;
54921;SDS011;40824;45.116;21.296;2023-05-17T06:47:55;9.93;;;5.53;;
54921;SDS011;40824;45.116;21.296;2023-05-17T06:50:21;11.20;;;5.35;;
54921;SDS011;40824;45.116;21.296;2023-05-17T06:52:49;10.32;;;5.05;;
54921;SDS011;40824;45.116;21.296;2023-05-17T06:55:15;9.55;;;5.15;;
54921;SDS011;40824;45.116;21.296;2023-05-17T06:57:41;7.57;;;4.70;;
54921;SDS011;40824;45.116;21.296;2023-05-17T07:00:07;12.25;;;5.28;;
54921;SDS011;40824;45.116;21.296;2023-05-17T07:02:35;7.68;;;4.85;;
54921;SDS011;40824;45.116;21.296;2023-05-17T07:05:01;7.63;;;4.78;;
54921;SDS011;40824;45.116;21.296;2023-05-17T07:07:27;11.27;;;4.82;;
54921;SDS011;40824;45.116;21.296;2023-05-17T07:09:55;11.60;;;5.38;;
54921;SDS011;40824;45.116;21.296;2023-05-17T07:12:21;7.50;;;4.95;;
54921;SDS011;40824;45.116;21.296;2023-05-17T07:14:47;10.35;;;5.60;;
54921;SDS011;40824;45.116;21.296;2023-05-17T07:17:13;13.82;;;5.95;;
54921;SDS011;40824;45.116;21.296;2023-05-17T07:19:39;8.85;;;5.28;;
54921;SDS011;40824;45.116;21.296;2023-05-17T07:22:05;9.70;;;5.70;;
54921;SDS011;40824;45.116;21.296;2023-05-17T07:24:31;10.85;;;5.00;;
54921;SDS011;40824;45.116;21.296;2023-05-17T07:26:59;12.93;;;5.40;;
54921;SDS011;40824;45.116;21.296;2023-05-17T07:29:25;12.30;;;5.82;;
54921;SDS011;40824;45.116;21.296;2023-05-17T07:31:51;11.50;;;5.78;;
54921;SDS011;40824;45.116;21.296;2023-05-17T07:34:17;10.20;;;5.05;;
54921;SDS011;40824;45.116;21.296;2023-05-17T07:36:43;14.65;;;5.25;;
54921;SDS011;40824;45.116;21.296;2023-05-17T07:39:09;23.08;;;6.28;;
54921;SDS011;40824;45.116;21.296;2023-05-17T07:41:36;9.68;;;5.22;;
54921;SDS011;40824;45.116;21.296;2023-05-17T07:44:02;8.32;;;5.15;;
54921;SDS011;40824;45.116;21.296;2023-05-17T07:46:29;7.38;;;5.60;;
54921;SDS011;40824;45.116;21.296;2023-05-17T07:48:55;9.75;;;6.32;;
54921;SDS011;40824;45.116;21.296;2023-05-17T07:51:21;8.38;;;6.00;;
54921;SDS011;40824;45.116;21.296;2023-05-17T07:53:48;11.02;;;6.80;;
54921;SDS011;40824;45.116;21.296;2023-05-17T07:56:14;10.50;;;6.35;;
54921;SDS011;40824;45.116;21.296;2023-05-17T07:58:40;14.57;;;7.10;;
54921;SDS011;40824;45.116;21.296;2023-05-17T08:01:06;11.02;;;6.15;;
54921;SDS011;40824;45.116;21.296;2023-05-17T08:03:33;11.75;;;6.63;;
54921;SDS011;40824;45.116;21.296;2023-05-17T08:06:00;9.00;;;6.22;;
54921;SDS011;40824;45.116;21.296;2023-05-17T08:08:26;9.65;;;6.03;;
54921;SDS011;40824;45.116;21.296;2023-05-17T08:10:52;14.38;;;6.45;;
54921;SDS011;40824;45.116;21.296;2023-05-17T08:13:18;14.00;;;6.32;;
54921;SDS011;40824;45.116;21.296;2023-05-17T08:15:44;9.93;;;6.25;;
54921;SDS011;40824;45.116;21.296;2023-05-17T08:18:10;13.23;;;6.97;;
54921;SDS011;40824;45.116;21.296;2023-05-17T08:20:36;12.73;;;6.30;;
54921;SDS011;40824;45.116;21.296;2023-05-17T08:23:02;11.68;;;6.25;;
54921;SDS011;40824;45.116;21.296;2023-05-17T08:25:28;10.40;;;6.45;;
54921;SDS011;40824;45.116;21.296;2023-05-17T08:27:54;9.48;;;6.20;;
54921;SDS011;40824;45.116;21.296;2023-05-17T08:30:20;11.20;;;6.55;;
54921;SDS011;40824;45.116;21.296;2023-05-17T08:32:47;13.55;;;6.93;;
54921;SDS011;40824;45.116;21.296;2023-05-17T08:35:13;13.05;;;6.10;;
54921;SDS011;40824;45.116;21.296;2023-05-17T08:37:40;12.25;;;6.13;;
54921;SDS011;40824;45.116;21.296;2023-05-17T08:40:08;10.23;;;5.85;;
54921;SDS011;40824;45.116;21.296;2023-05-17T08:42:35;10.25;;;5.57;;
54921;SDS011;40824;45.116;21.296;2023-05-17T08:45:01;9.02;;;5.40;;
54921;SDS011;40824;45.116;21.296;2023-05-17T08:47:27;12.73;;;6.25;;
54921;SDS011;40824;45.116;21.296;2023-05-17T08:49:56;10.10;;;5.63;;
54921;SDS011;40824;45.116;21.296;2023-05-17T08:52:26;10.60;;;6.07;;
54921;SDS011;40824;45.116;21.296;2023-05-17T08:54:53;9.68;;;5.40;;
54921;SDS011;40824;45.116;21.296;2023-05-17T08:57:19;9.50;;;5.78;;
54921;SDS011;40824;45.116;21.296;2023-05-17T08:59:48;7.25;;;5.45;;
54921;SDS011;40824;45.116;21.296;2023-05-17T09:02:16;7.45;;;5.45;;
54921;SDS011;40824;45.116;21.296;2023-05-17T09:04:42;11.52;;;5.07;;
54921;SDS011;40824;45.116;21.296;2023-05-17T09:07:08;9.52;;;5.65;;
54921;SDS011;40824;45.116;21.296;2023-05-17T09:09:34;14.13;;;6.10;;
54921;SDS011;40824;45.116;21.296;2023-05-17T09:12:01;9.70;;;5.55;;
54921;SDS011;40824;45.116;21.296;2023-05-17T09:14:34;9.13;;;5.68;;
54921;SDS011;40824;45.116;21.296;2023-05-17T09:17:00;9.77;;;4.90;;
54921;SDS011;40824;45.116;21.296;2023-05-17T09:19:26;7.32;;;4.55;;
54921;SDS011;40824;45.116;21.296;2023-05-17T09:21:53;7.18;;;5.07;;
54921;SDS011;40824;45.116;21.296;2023-05-17T09:24:26;15.68;;;4.93;;
54921;SDS011;40824;45.116;21.296;2023-05-17T09:26:53;13.68;;;5.40;;
54921;SDS011;40824;45.116;21.296;2023-05-17T09:29:25;14.77;;;6.73;;
54921;SDS011;40824;45.116;21.296;2023-05-17T09:31:51;10.48;;;5.20;;
54921;SDS011;40824;45.116;21.296;2023-05-17T09:34:19;9.10;;;5.75;;
54921;SDS011;40824;45.116;21.296;2023-05-17T09:36:48;8.80;;;4.90;;
54921;SDS011;40824;45.116;21.296;2023-05-17T09:39:16;10.93;;;5.22;;
54921;SDS011;40824;45.116;21.296;2023-05-17T09:41:45;7.55;;;4.45;;
54921;SDS011;40824;45.116;21.296;2023-05-17T09:44:14;10.88;;;4.60;;
54921;SDS011;40824;45.116;21.296;2023-05-17T09:46:41;9.20;;;4.85;;
54921;SDS011;40824;45.116;21.296;2023-05-17T09:49:07;8.38;;;4.35;;
54921;SDS011;40824;45.116;21.296;2023-05-17T09:51:33;12.55;;;5.80;;
54921;SDS011;40824;45.116;21.296;2023-05-17T09:53:59;11.20;;;6.18;;
54921;SDS011;40824;45.116;21.296;2023-05-17T09:56:29;10.25;;;5.00;;
54921;SDS011;40824;45.116;21.296;2023-05-17T09:58:56;9.75;;;4.65;;
54921;SDS011;40824;45.116;21.296;2023-05-17T10:01:25;8.35;;;5.15;;
54921;SDS011;40824;45.116;21.296;2023-05-17T10:03:52;8.38;;;5.03;;
54921;SDS011;40824;45.116;21.296;2023-05-17T10:06:20;6.53;;;4.32;;
54921;SDS011;40824;45.116;21.296;2023-05-17T10:08:51;7.53;;;4.70;;
54921;SDS011;40824;45.116;21.296;2023-05-17T10:11:20;7.38;;;4.90;;
54921;SDS011;40824;45.116;21.296;2023-05-17T10:13:51;8.63;;;4.93;;
54921;SDS011;40824;45.116;21.296;2023-05-17T10:16:20;6.65;;;4.50;;
54921;SDS011;40824;45.116;21.296;2023-05-17T10:18:47;10.02;;;4.82;;
54921;SDS011;40824;45.116;21.296;2023-05-17T10:21:14;7.28;;;4.60;;
54921;SDS011;40824;45.116;21.296;2023-05-17T10:23:41;8.77;;;4.40;;
54921;SDS011;40824;45.116;21.296;2023-05-17T10:26:08;12.15;;;5.25;;
54921;SDS011;40824;45.116;21.296;2023-05-17T10:28:35;8.43;;;4.72;;
54921;SDS011;40824;45.116;21.296;2023-05-17T10:31:02;8.68;;;4.35;;
54921;SDS011;40824;45.116;21.296;2023-05-17T10:33:28;11.77;;;5.30;;
54921;SDS011;40824;45.116;21.296;2023-05-17T10:35:57;10.15;;;4.28;;
54921;SDS011;40824;45.116;21.296;2023-05-17T10:38:23;5.75;;;4.50;;
54921;SDS011;40824;45.116;21.296;2023-05-17T10:40:50;10.88;;;4.57;;
54921;SDS011;40824;45.116;21.296;2023-05-17T10:43:17;8.43;;;4.40;;
54921;SDS011;40824;45.116;21.296;2023-05-17T10:45:44;11.02;;;4.60;;
54921;SDS011;40824;45.116;21.296;2023-05-17T10:48:12;9.10;;;4.43;;
54921;SDS011;40824;45.116;21.296;2023-05-17T10:50:39;8.00;;;4.43;;
54921;SDS011;40824;45.116;21.296;2023-05-17T10:53:09;8.98;;;4.72;;
54921;SDS011;40824;45.116;21.296;2023-05-17T10:55:39;8.68;;;4.60;;
54921;SDS011;40824;45.116;21.296;2023-05-17T10:58:16;8.27;;;4.03;;
54921;SDS011;40824;45.116;21.296;2023-05-17T11:00:47;10.38;;;4.95;;
54921;SDS011;40824;45.116;21.296;2023-05-17T11:05:41;9.23;;;5.03;;
54921;SDS011;40824;45.116;21.296;2023-05-17T11:08:13;10.23;;;4.53;;
54921;SDS011;40824;45.116;21.296;2023-05-17T11:11:06;11.32;;;4.90;;
54921;SDS011;40824;45.116;21.296;2023-05-17T11:13:25;9.43;;;4.90;;
54921;SDS011;40824;45.116;21.296;2023-05-17T11:16:12;8.23;;;4.43;;
54921;SDS011;40824;45.116;21.296;2023-05-17T11:18:45;9.05;;;4.57;;
54921;SDS011;40824;45.116;21.296;2023-05-17T11:21:12;10.32;;;5.07;;
54921;SDS011;40824;45.116;21.296;2023-05-17T11:23:39;9.35;;;4.97;;
54921;SDS011;40824;45.116;21.296;2023-05-17T11:26:11;8.80;;;5.20;;
54921;SDS011;40824;45.116;21.296;2023-05-17T11:28:37;7.07;;;4.55;;
54921;SDS011;40824;45.116;21.296;2023-05-17T11:31:03;10.55;;;4.60;;
54921;SDS011;40824;45.116;21.296;2023-05-17T11:33:37;10.80;;;4.65;;
54921;SDS011;40824;45.116;21.296;2023-05-17T11:36:04;9.50;;;5.07;;
54921;SDS011;40824;45.116;21.296;2023-05-17T11:38:31;13.07;;;5.82;;
54921;SDS011;40824;45.116;21.296;2023-05-17T11:40:58;10.55;;;4.53;;
54921;SDS011;40824;45.116;21.296;2023-05-17T11:43:43;13.10;;;5.70;;
54921;SDS011;40824;45.116;21.296;2023-05-17T11:46:10;9.18;;;4.93;;
54921;SDS011;40824;45.116;21.296;2023-05-17T11:48:43;7.32;;;4.45;;
54921;SDS011;40824;45.116;21.296;2023-05-17T11:51:10;11.23;;;4.75;;
54921;SDS011;40824;45.116;21.296;2023-05-17T11:53:39;10.52;;;5.57;;
54921;SDS011;40824;45.116;21.296;2023-05-17T11:56:05;10.98;;;5.15;;
54921;SDS011;40824;45.116;21.296;2023-05-17T11:58:33;8.02;;;5.05;;
54921;SDS011;40824;45.116;21.296;2023-05-17T12:00:59;9.38;;;5.35;;
54921;SDS011;40824;45.116;21.296;2023-05-17T12:03:28;13.18;;;5.25;;
54921;SDS011;40824;45.116;21.296;2023-05-17T12:08:27;11.52;;;5.15;;
54921;SDS011;40824;45.116;21.296;2023-05-17T12:10:53;7.80;;;4.53;;
54921;SDS011;40824;45.116;21.296;2023-05-17T12:13:21;14.07;;;5.15;;
54921;SDS011;40824;45.116;21.296;2023-05-17T12:15:50;8.13;;;4.72;;
54921;SDS011;40824;45.116;21.296;2023-05-17T12:18:16;8.27;;;4.60;;
54921;SDS011;40824;45.116;21.296;2023-05-17T12:20:57;8.60;;;4.97;;
54921;SDS011;40824;45.116;21.296;2023-05-17T12:23:32;7.45;;;4.68;;
54921;SDS011;40824;45.116;21.296;2023-05-17T12:26:05;8.43;;;5.13;;
54921;SDS011;40824;45.116;21.296;2023-05-17T12:28:32;8.82;;;4.75;;
54921;SDS011;40824;45.116;21.296;2023-05-17T12:30:58;7.35;;;4.35;;
54921;SDS011;40824;45.116;21.296;2023-05-17T12:33:28;10.65;;;5.00;;
54921;SDS011;40824;45.116;21.296;2023-05-17T12:35:55;10.77;;;5.22;;
54921;SDS011;40824;45.116;21.296;2023-05-17T12:38:21;12.10;;;5.88;;
54921;SDS011;40824;45.116;21.296;2023-05-17T12:40:48;11.30;;;5.22;;
54921;SDS011;40824;45.116;21.296;2023-05-17T12:43:14;10.02;;;5.53;;
54921;SDS011;40824;45.116;21.296;2023-05-17T12:45:40;9.20;;;4.80;;
54921;SDS011;40824;45.116;21.296;2023-05-17T12:48:06;9.35;;;4.78;;
54921;SDS011;40824;45.116;21.296;2023-05-17T12:50:32;11.85;;;5.20;;
54921;SDS011;40824;45.116;21.296;2023-05-17T12:52:58;9.65;;;5.28;;
54921;SDS011;40824;45.116;21.296;2023-05-17T12:55:36;9.38;;;4.63;;
54921;SDS011;40824;45.116;21.296;2023-05-17T12:58:02;10.68;;;5.75;;
54921;SDS011;40824;45.116;21.296;2023-05-17T13:00:28;11.15;;;5.47;;
54921;SDS011;40824;45.116;21.296;2023-05-17T13:02:55;9.98;;;5.13;;
54921;SDS011;40824;45.116;21.296;2023-05-17T13:05:21;14.63;;;6.75;;
54921;SDS011;40824;45.116;21.296;2023-05-17T13:07:50;10.70;;;4.72;;
54921;SDS011;40824;45.116;21.296;2023-05-17T13:10:23;11.07;;;5.05;;
54921;SDS011;40824;45.116;21.296;2023-05-17T13:12:56;10.15;;;5.18;;
54921;SDS011;40824;45.116;21.296;2023-05-17T13:15:32;9.80;;;4.57;;
54921;SDS011;40824;45.116;21.296;2023-05-17T13:17:58;10.10;;;5.43;;
54921;SDS011;40824;45.116;21.296;2023-05-17T13:20:28;10.07;;;5.22;;
54921;SDS011;40824;45.116;21.296;2023-05-17T13:22:54;10.48;;;5.35;;
54921;SDS011;40824;45.116;21.296;2023-05-17T13:25:20;13.45;;;5.40;;
54921;SDS011;40824;45.116;21.296;2023-05-17T13:27:46;13.13;;;4.90;;
54921;SDS011;40824;45.116;21.296;2023-05-17T13:30:17;12.18;;;5.35;;
54921;SDS011;40824;45.116;21.296;2023-05-17T13:32:43;11.23;;;5.65;;
54921;SDS011;40824;45.116;21.296;2023-05-17T13:35:11;10.07;;;5.50;;
54921;SDS011;40824;45.116;21.296;2023-05-17T13:37:37;15.77;;;5.65;;
54921;SDS011;40824;45.116;21.296;2023-05-17T13:40:03;8.82;;;5.18;;
54921;SDS011;40824;45.116;21.296;2023-05-17T13:42:29;10.02;;;5.05;;
54921;SDS011;40824;45.116;21.296;2023-05-17T13:44:56;10.07;;;5.63;;
54921;SDS011;40824;45.116;21.296;2023-05-17T13:47:22;11.13;;;6.00;;
54921;SDS011;40824;45.116;21.296;2023-05-17T13:49:49;12.05;;;5.57;;
54921;SDS011;40824;45.116;21.296;2023-05-17T13:52:15;12.57;;;5.60;;
54921;SDS011;40824;45.116;21.296;2023-05-17T13:54:42;11.43;;;5.50;;
54921;SDS011;40824;45.116;21.296;2023-05-17T13:57:08;10.23;;;5.60;;
54921;SDS011;40824;45.116;21.296;2023-05-17T13:59:34;14.20;;;6.78;;
54921;SDS011;40824;45.116;21.296;2023-05-17T14:02:00;11.52;;;6.22;;
54921;SDS011;40824;45.116;21.296;2023-05-17T14:04:28;11.32;;;5.85;;
54921;SDS011;40824;45.116;21.296;2023-05-17T14:06:54;12.55;;;6.53;;
54921;SDS011;40824;45.116;21.296;2023-05-17T14:09:20;10.30;;;5.93;;
54921;SDS011;40824;45.116;21.296;2023-05-17T14:11:47;12.80;;;6.50;;
54921;SDS011;40824;45.116;21.296;2023-05-17T14:14:13;13.55;;;6.35;;
54921;SDS011;40824;45.116;21.296;2023-05-17T14:16:40;13.93;;;6.05;;
54921;SDS011;40824;45.116;21.296;2023-05-17T14:19:06;15.32;;;5.90;;
54921;SDS011;40824;45.116;21.296;2023-05-17T14:21:32;13.65;;;7.00;;
54921;SDS011;40824;45.116;21.296;2023-05-17T14:23:58;11.93;;;5.88;;
54921;SDS011;40824;45.116;21.296;2023-05-17T14:26:24;10.60;;;6.95;;
54921;SDS011;40824;45.116;21.296;2023-05-17T14:28:50;11.25;;;6.38;;
54921;SDS011;40824;45.116;21.296;2023-05-17T14:31:16;22.17;;;7.45;;
54921;SDS011;40824;45.116;21.296;2023-05-17T14:33:42;18.35;;;6.97;;
54921;SDS011;40824;45.116;21.296;2023-05-17T14:36:08;12.25;;;6.63;;
54921;SDS011;40824;45.116;21.296;2023-05-17T14:38:35;14.45;;;6.15;;